createdAt,value
2019-05-18T00:00:05.163Z,78.33
2019-05-18T00:01:05.180Z,78.94
2019-05-18T00:02:05.144Z,78.94
2019-05-18T00:03:05.104Z,78.94
2019-05-18T00:04:05.097Z,78.77
2019-05-18T00:05:05.085Z,79.04
2019-05-18T00:06:05.075Z,79.55
2019-05-18T00:07:05.127Z,79.14
2019-05-18T00:08:05.047Z,79.04
2019-05-18T00:09:05.019Z,79.04
2019-05-18T00:10:05.053Z,79.14
2019-05-18T00:11:05.040Z,79.35
2019-05-18T00:12:05.019Z,79.14
2019-05-18T00:13:05.031Z,79.14
2019-05-18T00:14:05.001Z,79.45
2019-05-18T00:15:04.992Z,79.18
2019-05-18T00:16:04.973Z,79.49
2019-05-18T00:17:07.871Z,79.18
2019-05-18T00:18:06.024Z,79.35
2019-05-18T00:19:04.953Z,79.39
2019-05-18T00:20:04.952Z,78.98
2019-05-18T00:21:04.928Z,79.28
2019-05-18T00:22:04.903Z,79.49
2019-05-18T00:23:04.947Z,79.28
2019-05-18T00:24:04.904Z,79.28
2019-05-18T00:25:04.862Z,79.18
2019-05-18T00:26:04.848Z,79.18
2019-05-18T00:27:04.841Z,79.18
2019-05-18T00:28:04.874Z,79.18
2019-05-18T00:29:04.820Z,79.28
2019-05-18T00:30:04.812Z,79.28
2019-05-18T00:31:04.802Z,79.32
2019-05-18T00:32:04.791Z,79.28
2019-05-18T00:33:04.839Z,79.18
2019-05-18T00:34:04.796Z,79.28
2019-05-18T00:35:04.772Z,79.08
2019-05-18T00:36:04.732Z,79.22
2019-05-18T00:37:04.776Z,79.28
2019-05-18T00:38:04.758Z,79.22
2019-05-18T00:39:04.741Z,79.52
2019-05-18T00:40:04.697Z,79.22
2019-05-18T00:41:04.692Z,79.22
2019-05-18T00:42:04.680Z,78.71
2019-05-18T00:43:04.723Z,79.73
2019-05-18T00:44:04.700Z,79.12
2019-05-18T00:45:04.694Z,78.71
2019-05-18T00:46:04.671Z,79.12
2019-05-18T00:47:04.670Z,79.32
2019-05-18T00:48:04.677Z,79.43
2019-05-18T00:49:04.627Z,79.22
2019-05-18T00:50:04.614Z,79.22
2019-05-18T00:51:04.611Z,79.66
2019-05-18T00:52:04.619Z,79.66
2019-05-18T00:53:04.615Z,79.87
2019-05-18T00:54:04.564Z,79.97
2019-05-18T00:55:04.572Z,79.77
2019-05-18T00:56:04.568Z,79.91
2019-05-18T00:57:04.539Z,79.80
2019-05-18T00:58:04.553Z,80.21
2019-05-18T00:59:04.555Z,80.32
2019-05-18T01:00:04.459Z,80.21
2019-05-18T01:01:04.473Z,80.32
2019-05-18T01:02:04.469Z,80.21
2019-05-18T01:03:04.494Z,80.11
2019-05-18T01:04:04.434Z,80.01
2019-05-18T01:05:04.422Z,80.32
2019-05-18T01:06:04.416Z,80.21
2019-05-18T01:07:04.440Z,80.32
2019-05-18T01:08:04.486Z,80.15
2019-05-18T01:09:04.375Z,80.25
2019-05-18T01:10:04.366Z,80.05
2019-05-18T01:11:04.355Z,80.56
2019-05-18T01:12:04.328Z,81.27
2019-05-18T01:13:04.338Z,81.27
2019-05-18T01:14:04.324Z,80.76
2019-05-18T01:15:04.305Z,80.87
2019-05-18T01:16:04.323Z,81.10
2019-05-18T01:17:04.317Z,80.15
2019-05-18T01:18:04.279Z,80.29
2019-05-18T01:19:04.350Z,80.60
2019-05-18T01:20:04.249Z,80.80
2019-05-18T01:21:04.241Z,81.27
2019-05-18T01:22:04.222Z,81.17
2019-05-18T01:23:04.220Z,81.48
2019-05-18T01:24:04.267Z,81.38
2019-05-18T01:25:04.186Z,81.79
2019-05-18T01:26:04.183Z,81.88
2019-05-18T01:27:04.190Z,80.87
2019-05-18T01:28:04.178Z,81.58
2019-05-18T01:29:04.191Z,81.17
2019-05-18T01:30:04.180Z,80.80
2019-05-18T01:31:04.175Z,80.97
2019-05-18T01:32:04.118Z,81.21
2019-05-18T01:33:04.140Z,81.62
2019-05-18T01:34:04.175Z,81.82
2019-05-18T01:35:04.112Z,81.21
2019-05-18T01:36:04.101Z,81.21
2019-05-18T01:37:04.069Z,80.76
2019-05-18T01:38:04.054Z,81.31
2019-05-18T01:39:04.093Z,80.19
2019-05-18T01:40:04.033Z,80.80
2019-05-18T01:41:04.013Z,80.80
2019-05-18T01:42:04.002Z,80.08
2019-05-18T01:43:04.006Z,80.39
2019-05-18T01:44:03.994Z,80.49
2019-05-18T01:45:15.825Z,79.98
2019-05-18T01:46:04.988Z,80.29
2019-05-18T01:47:03.948Z,80.19
2019-05-18T01:48:13.216Z,81.01
2019-05-18T01:49:04.975Z,80.69
2019-05-18T01:50:03.919Z,81.41
2019-05-18T01:51:03.910Z,81.10
2019-05-18T01:52:04.029Z,81.10
2019-05-18T01:53:03.915Z,81.21
2019-05-18T01:54:03.907Z,80.74
2019-05-18T01:55:03.882Z,80.63
2019-05-18T01:56:03.842Z,81.45
2019-05-18T01:57:03.843Z,81.24
2019-05-18T01:58:03.812Z,81.86
2019-05-18T01:59:03.875Z,81.90
2019-05-18T02:00:03.813Z,82.00
2019-05-18T02:01:03.796Z,81.90
2019-05-18T02:02:03.807Z,81.90
2019-05-18T02:03:03.837Z,81.90
2019-05-18T02:04:03.868Z,81.59
2019-05-18T02:05:03.763Z,81.79
2019-05-18T02:06:03.774Z,81.90
2019-05-18T02:07:03.789Z,81.84
2019-05-18T02:08:03.705Z,81.29
2019-05-18T02:09:03.731Z,82.31
2019-05-18T02:10:03.710Z,81.79
2019-05-18T02:11:03.691Z,81.79
2019-05-18T02:12:03.671Z,81.90
2019-05-18T02:13:03.684Z,81.79
2019-05-18T02:14:03.662Z,82.00
2019-05-18T02:15:03.632Z,82.00
2019-05-18T02:16:03.639Z,82.41
2019-05-18T02:17:03.604Z,82.31
2019-05-18T02:18:03.647Z,82.51
2019-05-18T02:19:03.634Z,82.71
2019-05-18T02:20:03.587Z,82.41
2019-05-18T02:21:03.625Z,82.62
2019-05-18T02:22:03.590Z,82.71
2019-05-18T02:23:03.552Z,82.82
2019-05-18T02:24:03.685Z,82.71
2019-05-18T02:25:03.549Z,82.31
2019-05-18T02:26:03.541Z,82.51
2019-05-18T02:27:03.534Z,82.82
2019-05-18T02:28:03.474Z,82.51
2019-05-18T02:29:03.523Z,82.00
2019-05-18T02:30:03.525Z,82.31
2019-05-18T02:31:03.484Z,82.04
2019-05-18T02:32:03.475Z,81.90
2019-05-18T02:33:03.448Z,81.18
2019-05-18T02:34:03.516Z,81.22
2019-05-18T02:35:03.463Z,81.63
2019-05-18T02:36:03.459Z,81.63
2019-05-18T02:37:03.430Z,82.04
2019-05-18T02:38:03.397Z,81.84
2019-05-18T02:39:03.416Z,81.94
2019-05-18T02:40:03.381Z,82.24
2019-05-18T02:41:03.405Z,82.24
2019-05-18T02:42:03.339Z,82.86
2019-05-18T02:43:03.328Z,82.65
2019-05-18T02:44:03.374Z,82.04
2019-05-18T02:45:03.277Z,81.52
2019-05-18T02:46:03.404Z,81.63
2019-05-18T02:47:03.278Z,81.63
2019-05-18T02:48:03.283Z,81.73
2019-05-18T02:49:03.267Z,81.73
2019-05-18T02:50:03.299Z,81.87
2019-05-18T02:51:03.216Z,82.90
2019-05-18T02:52:03.248Z,82.28
2019-05-18T02:53:03.222Z,82.59
2019-05-18T02:54:03.209Z,82.49
2019-05-18T02:55:03.254Z,82.69
2019-05-18T02:56:03.173Z,82.73
2019-05-18T02:57:03.192Z,82.63
2019-05-18T02:58:03.183Z,82.90
2019-05-18T02:59:03.159Z,82.63
2019-05-18T03:01:40.112Z,82.63
2019-05-18T03:02:40.009Z,82.73
2019-05-18T03:03:40.016Z,82.63
2019-05-18T03:04:40.020Z,83.04
2019-05-18T03:05:39.986Z,83.04
2019-05-18T03:06:39.938Z,82.32
2019-05-18T03:07:39.949Z,82.73
2019-05-18T03:08:39.993Z,82.73
2019-05-18T03:09:39.985Z,82.63
2019-05-18T03:10:39.920Z,82.73
2019-05-18T03:11:39.907Z,82.53
2019-05-18T03:12:39.919Z,82.63
2019-05-18T03:13:39.899Z,82.42
2019-05-18T03:14:39.900Z,82.73
2019-05-18T03:15:39.850Z,82.08
2019-05-18T03:16:39.849Z,82.01
2019-05-18T03:17:39.850Z,81.40
2019-05-18T03:18:39.815Z,81.20
2019-05-18T03:19:39.874Z,81.91
2019-05-18T03:20:39.808Z,81.60
2019-05-18T03:21:39.798Z,81.40
2019-05-18T03:22:39.780Z,82.53
2019-05-18T03:23:39.751Z,82.73
2019-05-18T03:24:39.805Z,82.53
2019-05-18T03:25:39.786Z,82.63
2019-05-18T03:26:39.730Z,82.42
2019-05-18T03:27:39.741Z,82.53
2019-05-18T03:28:39.727Z,82.42
2019-05-18T03:29:39.730Z,82.12
2019-05-18T03:30:39.738Z,82.77
2019-05-18T03:31:39.693Z,82.15
2019-05-18T03:32:39.684Z,82.12
2019-05-18T03:33:39.652Z,81.81
2019-05-18T03:34:39.649Z,81.95
2019-05-18T03:35:39.682Z,81.91
2019-05-18T03:36:39.616Z,82.15
2019-05-18T03:37:39.636Z,82.46
2019-05-18T03:38:39.598Z,82.26
2019-05-18T03:39:39.592Z,82.46
2019-05-18T03:40:39.593Z,82.56
2019-05-18T03:41:39.573Z,82.67
2019-05-18T03:42:39.558Z,82.67
2019-05-18T03:43:39.538Z,82.56
2019-05-18T03:44:39.532Z,82.26
2019-05-18T03:45:39.623Z,82.50
2019-05-18T03:46:39.541Z,82.26
2019-05-18T03:47:39.494Z,82.36
2019-05-18T03:48:39.498Z,82.87
2019-05-18T03:49:39.474Z,82.87
2019-05-18T03:50:39.535Z,82.56
2019-05-18T03:51:39.455Z,82.87
2019-05-18T03:52:39.451Z,81.74
2019-05-18T03:53:39.424Z,81.95
2019-05-18T03:54:39.430Z,81.95
2019-05-18T03:55:39.428Z,81.95
2019-05-18T03:56:39.397Z,81.95
2019-05-18T03:57:39.372Z,82.97
2019-05-18T03:58:39.380Z,82.56
2019-05-18T03:59:39.359Z,82.77
2019-05-18T04:00:39.403Z,82.77
2019-05-18T04:01:39.348Z,82.87
2019-05-18T04:02:39.341Z,82.46
2019-05-18T04:03:39.310Z,82.77
2019-05-18T04:04:39.335Z,82.46
2019-05-18T04:05:39.375Z,82.56
2019-05-18T04:06:39.281Z,82.77
2019-05-18T04:07:39.347Z,82.32
2019-05-18T04:08:39.292Z,82.36
2019-05-18T04:09:39.278Z,82.63
2019-05-18T04:10:39.298Z,82.01
2019-05-18T04:11:39.247Z,82.42
2019-05-18T04:12:39.214Z,83.14
2019-05-18T04:13:39.298Z,83.04
2019-05-18T04:14:39.230Z,82.73
2019-05-18T04:15:39.201Z,83.04
2019-05-18T04:16:39.196Z,83.20
2019-05-18T04:17:39.200Z,82.49
2019-05-18T04:18:39.170Z,83.10
2019-05-18T04:19:46.538Z,82.59
2019-05-18T04:20:40.126Z,82.39
2019-05-18T04:21:39.206Z,82.59
2019-05-18T04:22:39.133Z,83.00
2019-05-18T04:23:39.134Z,82.79
2019-05-18T04:24:39.132Z,82.45
2019-05-18T04:25:43.299Z,82.86
2019-05-18T04:26:39.065Z,82.55
2019-05-18T04:27:39.043Z,82.55
2019-05-18T04:28:39.040Z,82.45
2019-05-18T04:29:39.087Z,82.45
2019-05-18T04:30:39.034Z,82.45
2019-05-18T04:31:38.981Z,82.55
2019-05-18T04:32:39.005Z,82.76
2019-05-18T04:33:38.979Z,83.06
2019-05-18T04:34:39.008Z,82.55
2019-05-18T04:35:38.957Z,82.55
2019-05-18T04:36:38.933Z,82.21
2019-05-18T04:37:38.948Z,82.31
2019-05-18T04:38:38.939Z,82.00
2019-05-18T04:39:38.932Z,81.90
2019-05-18T04:40:38.895Z,82.48
2019-05-18T04:41:38.884Z,81.49
2019-05-18T04:42:38.880Z,81.70
2019-05-18T04:43:38.865Z,81.76
2019-05-18T04:44:38.855Z,81.96
2019-05-18T04:45:38.872Z,82.07
2019-05-18T04:46:38.812Z,81.86
2019-05-18T04:47:38.829Z,82.68
2019-05-18T04:48:38.810Z,82.37
2019-05-18T04:49:38.790Z,82.37
2019-05-18T04:50:38.787Z,82.37
2019-05-18T04:51:38.755Z,82.23
2019-05-18T04:52:38.775Z,82.23
2019-05-18T04:53:38.785Z,82.34
2019-05-18T04:54:38.733Z,82.43
2019-05-18T04:55:38.817Z,82.75
2019-05-18T04:56:42.670Z,82.43
2019-05-18T04:57:38.732Z,82.23
2019-05-18T04:58:38.695Z,82.43
2019-05-18T04:59:38.680Z,82.54
2019-05-18T05:00:38.717Z,82.34
2019-05-18T05:01:38.667Z,82.23
2019-05-18T05:02:38.660Z,82.34
2019-05-18T05:03:38.651Z,82.43
2019-05-18T05:04:38.621Z,82.34
2019-05-18T05:05:38.649Z,82.43
2019-05-18T05:06:38.592Z,82.43
2019-05-18T05:07:38.614Z,81.88
2019-05-18T05:08:38.589Z,81.79
2019-05-18T05:09:38.580Z,81.88
2019-05-18T05:10:38.596Z,81.13
2019-05-18T05:11:38.563Z,81.79
2019-05-18T05:12:38.557Z,81.34
2019-05-18T05:13:38.527Z,81.65
2019-05-18T05:14:38.502Z,81.65
2019-05-18T05:15:38.551Z,81.91
2019-05-18T05:16:38.485Z,81.20
2019-05-18T05:17:38.494Z,81.51
2019-05-18T05:18:38.493Z,80.99
2019-05-18T05:19:38.466Z,80.89
2019-05-18T05:20:38.486Z,81.20
2019-05-18T05:21:38.472Z,81.16
2019-05-18T05:22:38.418Z,81.30
2019-05-18T05:23:38.457Z,81.26
2019-05-18T05:24:38.420Z,80.75
2019-05-18T05:25:38.465Z,81.05
2019-05-18T05:26:39.652Z,80.34
2019-05-18T05:27:38.381Z,80.14
2019-05-18T05:28:38.361Z,79.83
2019-05-18T05:29:38.351Z,79.39
2019-05-18T05:30:38.397Z,79.83
2019-05-18T05:31:38.342Z,79.22
2019-05-18T05:32:38.326Z,79.18
2019-05-18T05:33:38.301Z,78.88
2019-05-18T05:34:38.336Z,79.25
2019-05-18T05:35:38.357Z,79.35
2019-05-18T05:36:38.327Z,79.04
2019-05-18T05:37:38.274Z,78.94
2019-05-18T05:38:38.259Z,78.23
2019-05-18T05:39:38.278Z,78.12
2019-05-18T05:40:38.252Z,77.92
2019-05-18T05:41:38.232Z,77.98
2019-05-18T05:42:38.225Z,77.89
2019-05-18T05:43:38.202Z,77.68
2019-05-18T05:44:38.205Z,77.48
2019-05-18T05:45:38.202Z,76.97
2019-05-18T05:46:38.263Z,77.07
2019-05-18T05:47:38.148Z,76.83
2019-05-18T05:48:38.209Z,77.24
2019-05-18T05:49:38.174Z,76.12
2019-05-18T05:50:38.110Z,75.71
2019-05-18T05:51:38.134Z,75.67
2019-05-18T05:52:38.123Z,75.37
2019-05-18T05:53:38.187Z,75.67
2019-05-18T05:54:38.106Z,75.57
2019-05-18T05:55:38.093Z,75.27
2019-05-18T05:56:38.096Z,75.37
2019-05-18T05:57:38.037Z,75.78
2019-05-18T05:58:38.076Z,75.27
2019-05-18T05:59:38.096Z,74.96
2019-05-18T06:00:38.078Z,74.45
2019-05-18T06:01:37.990Z,74.96
2019-05-18T06:02:37.991Z,74.86
2019-05-18T06:03:38.013Z,74.93
2019-05-18T06:04:38.014Z,74.76
2019-05-18T06:05:37.962Z,74.52
2019-05-18T06:06:37.954Z,74.72
2019-05-18T06:07:37.937Z,74.52
2019-05-18T06:08:37.929Z,75.02
2019-05-18T06:09:37.953Z,74.62
2019-05-18T06:10:37.887Z,74.62
2019-05-18T06:11:37.901Z,74.72
2019-05-18T06:12:37.887Z,74.62
2019-05-18T06:13:37.889Z,74.79
2019-05-18T06:14:37.862Z,74.58
2019-05-18T06:15:37.904Z,74.89
2019-05-18T06:16:37.847Z,74.48
2019-05-18T06:17:37.832Z,74.89
2019-05-18T06:18:37.816Z,73.54
2019-05-18T06:19:37.825Z,73.23
2019-05-18T06:20:50.382Z,73.23
2019-05-18T06:21:38.826Z,72.99
2019-05-18T06:22:37.774Z,72.82
2019-05-18T06:23:37.755Z,73.02
2019-05-18T06:24:37.755Z,72.69
2019-05-18T06:25:37.753Z,72.58
2019-05-18T06:26:37.782Z,73.09
2019-05-18T06:27:37.733Z,72.99
2019-05-18T06:28:37.707Z,72.89
2019-05-18T06:29:37.709Z,72.78
2019-05-18T06:30:37.689Z,73.19
2019-05-18T06:31:37.728Z,72.75
2019-05-18T06:32:37.662Z,72.89
2019-05-18T06:33:38.529Z,72.55
2019-05-18T06:34:37.663Z,72.96
2019-05-18T06:35:37.654Z,73.16
2019-05-18T06:36:37.675Z,71.73
2019-05-18T06:37:37.594Z,71.73
2019-05-18T06:38:37.590Z,73.16
2019-05-18T06:39:37.592Z,72.45
2019-05-18T06:40:37.572Z,72.45
2019-05-18T06:41:37.668Z,72.72
2019-05-18T06:42:37.557Z,72.41
2019-05-18T06:43:37.550Z,72.82
2019-05-18T06:44:37.539Z,72.72
2019-05-18T06:45:37.529Z,72.72
2019-05-18T06:46:37.544Z,72.72
2019-05-18T06:47:37.494Z,72.52
2019-05-18T06:48:37.493Z,72.78
2019-05-18T06:49:37.484Z,72.58
2019-05-18T06:50:37.469Z,73.09
2019-05-18T06:51:37.548Z,71.57
2019-05-18T06:52:37.480Z,71.88
2019-05-18T06:53:37.438Z,72.75
2019-05-18T06:54:37.466Z,72.04
2019-05-18T06:55:37.407Z,71.53
2019-05-18T06:56:37.435Z,71.44
2019-05-18T06:57:37.442Z,71.33
2019-05-18T06:58:37.380Z,70.62
2019-05-18T06:59:37.406Z,70.52
2019-05-18T07:00:37.361Z,70.11
2019-05-18T07:01:37.361Z,70.28
2019-05-18T07:02:37.388Z,70.08
2019-05-18T07:03:37.343Z,70.39
2019-05-18T07:04:37.322Z,70.59
2019-05-18T07:05:37.300Z,70.48
2019-05-18T07:06:37.309Z,69.88
2019-05-18T07:07:37.327Z,69.44
2019-05-18T07:08:37.271Z,69.74
2019-05-18T07:09:37.288Z,70.15
2019-05-18T07:10:37.239Z,69.34
2019-05-18T07:11:37.246Z,69.03
2019-05-18T07:12:37.276Z,68.32
2019-05-18T07:13:37.248Z,69.24
2019-05-18T07:14:37.204Z,68.73
2019-05-18T07:15:37.180Z,69.10
2019-05-18T07:16:37.190Z,69.00
2019-05-18T07:17:37.209Z,68.63
2019-05-18T07:18:37.171Z,68.29
2019-05-18T07:19:37.168Z,68.80
2019-05-18T07:20:37.158Z,69.07
2019-05-18T07:21:37.151Z,68.87
2019-05-18T07:22:37.161Z,67.35
2019-05-18T07:23:37.115Z,67.65
2019-05-18T07:24:37.097Z,67.85
2019-05-18T07:25:37.097Z,68.16
2019-05-18T07:26:37.095Z,68.56
2019-05-18T07:27:37.164Z,68.23
2019-05-18T07:28:37.075Z,68.02
2019-05-18T07:29:37.068Z,66.50
2019-05-18T07:30:37.066Z,66.61
2019-05-18T07:31:37.017Z,66.27
2019-05-18T07:32:37.081Z,66.17
2019-05-18T07:33:37.027Z,66.17
2019-05-18T07:34:37.000Z,65.64
2019-05-18T07:35:36.971Z,65.73
2019-05-18T07:36:36.979Z,65.23
2019-05-18T07:37:37.021Z,65.43
2019-05-18T07:38:36.979Z,64.93
2019-05-18T07:39:36.923Z,65.53
2019-05-18T07:40:36.933Z,65.73
2019-05-18T07:41:46.332Z,65.40
2019-05-18T07:42:37.924Z,65.20
2019-05-18T07:43:36.922Z,65.61
2019-05-18T07:44:36.898Z,65.10
2019-05-18T07:45:36.896Z,65.10
2019-05-18T07:46:36.866Z,65.00
2019-05-18T07:47:36.842Z,64.59
2019-05-18T07:48:36.841Z,64.49
2019-05-18T07:49:36.813Z,64.39
2019-05-18T07:50:36.800Z,64.67
2019-05-18T07:51:37.495Z,63.76
2019-05-18T07:52:36.846Z,63.38
2019-05-18T07:53:36.786Z,64.46
2019-05-18T07:54:36.746Z,63.96
2019-05-18T07:55:36.738Z,63.96
2019-05-18T07:56:36.775Z,64.16
2019-05-18T07:57:36.730Z,64.36
2019-05-18T07:58:36.746Z,64.46
2019-05-18T07:59:36.738Z,64.76
2019-05-18T08:00:36.734Z,64.56
2019-05-18T08:01:36.689Z,64.56
2019-05-18T08:02:36.702Z,64.43
2019-05-18T08:03:36.726Z,64.03
2019-05-18T08:04:39.717Z,63.96
2019-05-18T08:05:36.667Z,64.23
2019-05-18T08:06:36.640Z,63.73
2019-05-18T08:07:36.633Z,64.43
2019-05-18T08:08:36.676Z,64.10
2019-05-18T08:09:36.591Z,63.79
2019-05-18T08:10:36.591Z,62.88
2019-05-18T08:11:36.582Z,62.79
2019-05-18T08:12:36.565Z,60.97
2019-05-18T08:13:36.594Z,61.27
2019-05-18T08:14:36.559Z,61.75
2019-05-18T08:15:36.528Z,62.45
2019-05-18T08:16:36.519Z,61.88
2019-05-18T08:17:36.499Z,62.25
2019-05-18T08:18:36.511Z,62.45
2019-05-18T08:19:36.489Z,62.05
2019-05-18T08:20:36.479Z,61.95
2019-05-18T08:21:36.459Z,60.94
2019-05-18T08:22:36.445Z,60.71
2019-05-18T08:23:36.460Z,61.52
2019-05-18T08:24:36.440Z,60.81
2019-05-18T08:25:36.420Z,60.41
2019-05-18T08:26:36.397Z,60.71
2019-05-18T08:27:36.387Z,60.00
2019-05-18T08:28:36.444Z,60.10
2019-05-18T08:29:36.415Z,60.71
2019-05-18T08:30:36.357Z,60.81
2019-05-18T08:31:36.369Z,61.61
2019-05-18T08:32:36.460Z,60.51
2019-05-18T08:33:36.359Z,60.81
2019-05-18T08:34:36.335Z,60.41
2019-05-18T08:35:36.324Z,61.21
2019-05-18T08:36:36.315Z,60.98
2019-05-18T08:37:36.272Z,60.88
2019-05-18T08:38:36.357Z,59.97
2019-05-18T08:39:36.289Z,59.37
2019-05-18T08:40:36.281Z,59.47
2019-05-18T08:41:36.268Z,59.04
2019-05-18T08:42:36.227Z,59.04
2019-05-18T08:43:36.250Z,59.84
2019-05-18T08:44:36.244Z,59.34
2019-05-18T08:45:36.225Z,59.34
2019-05-18T08:46:36.205Z,58.34
2019-05-18T08:47:36.167Z,58.54
2019-05-18T08:48:36.180Z,58.44
2019-05-18T08:49:36.144Z,58.23
2019-05-18T08:50:36.179Z,58.54
2019-05-18T08:51:36.201Z,58.01
2019-05-18T08:52:36.112Z,58.81
2019-05-18T08:53:36.184Z,58.74
2019-05-18T08:54:36.098Z,57.40
2019-05-18T08:55:36.075Z,57.20
2019-05-18T08:56:36.088Z,56.60
2019-05-18T08:57:36.067Z,56.60
2019-05-18T08:58:36.101Z,57.60
2019-05-18T08:59:36.034Z,57.68
2019-05-18T09:00:36.044Z,57.28
2019-05-18T09:01:36.025Z,56.97
2019-05-18T09:02:35.999Z,56.87
2019-05-18T09:03:36.041Z,55.76
2019-05-18T09:04:35.997Z,54.75
2019-05-18T09:05:35.982Z,54.55
2019-05-18T09:06:35.986Z,54.55
2019-05-18T09:07:35.956Z,55.56
2019-05-18T09:08:35.951Z,55.26
2019-05-18T09:09:35.985Z,56.24
2019-05-18T09:10:35.942Z,55.83
2019-05-18T09:11:35.928Z,55.43
2019-05-18T09:12:35.919Z,54.63
2019-05-18T09:13:35.902Z,53.83
2019-05-18T09:14:35.938Z,53.90
2019-05-18T09:15:35.930Z,53.72
2019-05-18T09:16:35.890Z,53.63
2019-05-18T09:17:35.884Z,54.60
2019-05-18T09:18:35.865Z,53.70
2019-05-18T09:19:35.889Z,54.91
2019-05-18T09:20:35.829Z,55.00
2019-05-18T09:21:35.814Z,52.59
2019-05-18T09:22:35.847Z,53.90
2019-05-18T09:23:36.115Z,52.89
2019-05-18T09:24:35.843Z,53.77
2019-05-18T09:25:35.816Z,54.58
2019-05-18T09:26:35.857Z,53.17
2019-05-18T09:27:35.734Z,53.67
2019-05-18T09:28:35.716Z,53.27
2019-05-18T09:29:35.757Z,53.77
2019-05-18T09:30:35.703Z,52.77
2019-05-18T09:31:35.688Z,52.57
2019-05-18T09:32:35.693Z,52.80
2019-05-18T09:33:35.684Z,52.87
2019-05-18T09:34:35.727Z,53.47
2019-05-18T09:35:35.657Z,53.77
2019-05-18T09:36:35.670Z,53.17
2019-05-18T09:37:35.637Z,53.88
2019-05-18T09:38:35.619Z,54.98
2019-05-18T09:39:35.640Z,54.78
2019-05-18T09:40:35.601Z,54.48
2019-05-18T09:41:35.607Z,54.38
2019-05-18T09:42:35.586Z,53.75
2019-05-18T09:43:35.570Z,51.64
2019-05-18T09:44:35.580Z,51.86
2019-05-18T09:45:35.530Z,52.17
2019-05-18T09:46:35.520Z,51.86
2019-05-18T09:47:35.524Z,52.94
2019-05-18T09:48:35.655Z,53.65
2019-05-18T09:49:35.526Z,52.24
2019-05-18T09:50:35.484Z,53.14
2019-05-18T09:51:35.470Z,51.84
2019-05-18T09:52:44.628Z,52.04
2019-05-18T09:53:36.441Z,52.55
2019-05-18T09:54:35.451Z,52.94
2019-05-18T09:55:35.418Z,52.55
2019-05-18T09:56:35.415Z,52.55
2019-05-18T09:57:35.419Z,51.54
2019-05-18T09:58:35.383Z,52.92
2019-05-18T09:59:35.399Z,52.55
2019-05-18T10:00:38.979Z,52.51
2019-05-18T10:01:35.357Z,53.02
2019-05-18T10:02:35.361Z,52.92
2019-05-18T10:03:35.372Z,52.19
2019-05-18T10:04:35.343Z,52.69
2019-05-18T10:05:35.364Z,52.39
2019-05-18T10:06:35.326Z,52.39
2019-05-18T10:07:35.288Z,51.69
2019-05-18T10:08:35.306Z,52.59
2019-05-18T10:09:39.309Z,53.27
2019-05-18T10:10:35.291Z,53.59
2019-05-18T10:11:38.376Z,52.77
2019-05-18T10:12:35.236Z,51.67
2019-05-18T10:13:35.248Z,52.80
2019-05-18T10:14:35.230Z,53.27
2019-05-18T10:15:35.253Z,53.87
2019-05-18T10:16:35.211Z,52.47
2019-05-18T10:17:35.190Z,52.17
2019-05-18T10:18:35.177Z,51.26
2019-05-18T10:19:35.159Z,51.46
2019-05-18T10:20:35.201Z,50.76
2019-05-18T10:21:35.139Z,51.17
2019-05-18T10:22:35.126Z,51.56
2019-05-18T10:23:35.116Z,52.57
2019-05-18T10:24:35.107Z,52.07
2019-05-18T10:25:35.124Z,51.46
2019-05-18T10:26:35.168Z,51.87
2019-05-18T10:27:35.076Z,51.17
2019-05-18T10:28:35.110Z,51.37
2019-05-18T10:29:35.076Z,51.56
2019-05-18T10:30:35.061Z,51.46
2019-05-18T10:31:35.042Z,51.39
2019-05-18T10:32:35.027Z,51.17
2019-05-18T10:33:35.141Z,50.46
2019-05-18T10:34:35.001Z,50.06
2019-05-18T10:35:35.102Z,50.76
2019-05-18T10:36:34.978Z,51.17
2019-05-18T10:37:34.983Z,51.37
2019-05-18T10:38:34.996Z,51.67
2019-05-18T10:39:34.954Z,50.56
2019-05-18T10:40:34.940Z,48.05
2019-05-18T10:41:34.927Z,47.75
2019-05-18T10:42:34.916Z,47.85
2019-05-18T10:43:34.930Z,47.45
2019-05-18T10:44:34.920Z,48.05
2019-05-18T10:45:34.886Z,48.66
2019-05-18T10:46:34.899Z,49.76
2019-05-18T10:47:34.854Z,48.66
2019-05-18T10:48:34.865Z,48.66
2019-05-18T10:49:34.834Z,48.66
2019-05-18T10:50:34.826Z,48.75
2019-05-18T10:51:34.821Z,49.46
2019-05-18T10:52:34.835Z,50.26
2019-05-18T10:53:34.817Z,50.26
2019-05-18T10:54:34.792Z,49.86
2019-05-18T10:55:34.804Z,49.86
2019-05-18T10:56:34.879Z,49.56
2019-05-18T10:57:34.778Z,49.26
2019-05-18T10:58:34.748Z,49.66
2019-05-18T10:59:34.777Z,49.33
2019-05-18T11:00:34.715Z,49.33
2019-05-18T11:01:34.706Z,49.43
2019-05-18T11:02:34.701Z,49.63
2019-05-18T11:03:34.707Z,49.04
2019-05-18T11:04:34.812Z,49.13
2019-05-18T11:05:34.683Z,49.54
2019-05-18T11:06:34.680Z,49.04
2019-05-18T11:07:34.717Z,50.11
2019-05-18T11:08:34.666Z,49.31
2019-05-18T11:09:34.722Z,50.01
2019-05-18T11:10:34.634Z,49.51
2019-05-18T11:11:34.613Z,50.09
2019-05-18T11:12:34.584Z,50.21
2019-05-18T11:13:34.627Z,50.01
2019-05-18T11:14:34.649Z,50.09
2019-05-18T11:15:34.554Z,51.01
2019-05-18T11:16:34.570Z,50.19
2019-05-18T11:17:34.531Z,50.39
2019-05-18T11:18:34.529Z,50.09
2019-05-18T11:19:34.543Z,50.09
2019-05-18T11:20:34.520Z,50.19
2019-05-18T11:21:34.489Z,50.69
2019-05-18T11:22:34.501Z,50.69
2019-05-18T11:23:43.088Z,50.37
2019-05-18T11:24:35.533Z,51.09
2019-05-18T11:25:34.447Z,51.07
2019-05-18T11:26:34.434Z,50.87
2019-05-18T11:27:34.422Z,50.07
2019-05-18T11:28:34.444Z,49.57
2019-05-18T11:29:34.407Z,49.57
2019-05-18T11:30:34.429Z,49.24
2019-05-18T11:31:34.376Z,48.84
2019-05-18T11:32:34.401Z,49.14
2019-05-18T11:33:34.358Z,49.14
2019-05-18T11:34:34.355Z,49.64
2019-05-18T11:35:34.362Z,50.24
2019-05-18T11:36:34.321Z,49.04
2019-05-18T11:37:34.315Z,49.94
2019-05-18T11:38:34.296Z,49.94
2019-05-18T11:39:34.310Z,48.24
2019-05-18T11:40:34.338Z,47.84
2019-05-18T11:41:34.269Z,47.74
2019-05-18T11:42:34.279Z,48.16
2019-05-18T11:43:34.245Z,48.96
2019-05-18T11:44:34.266Z,49.16
2019-05-18T11:45:34.279Z,49.16
2019-05-18T11:46:34.213Z,49.26
2019-05-18T11:47:34.225Z,50.16
2019-05-18T11:48:34.188Z,49.66
2019-05-18T11:49:34.172Z,49.87
2019-05-18T11:50:34.195Z,50.07
2019-05-18T11:51:34.167Z,49.46
2019-05-18T11:52:34.143Z,48.36
2019-05-18T11:53:34.139Z,48.36
2019-05-18T11:54:34.115Z,47.86
2019-05-18T11:55:34.151Z,48.57
2019-05-18T11:56:34.154Z,48.46
2019-05-18T11:57:34.091Z,48.96
2019-05-18T11:58:34.087Z,49.96
2019-05-18T11:59:34.082Z,49.94
2019-05-18T12:00:34.155Z,50.24
2019-05-18T12:01:34.076Z,49.34
2019-05-18T12:02:34.036Z,48.44
2019-05-18T12:03:34.042Z,48.14
2019-05-18T12:04:34.010Z,48.54
2019-05-18T12:05:34.081Z,48.84
2019-05-18T12:06:34.042Z,49.34
2019-05-18T12:07:33.977Z,46.84
2019-05-18T12:08:33.987Z,47.64
2019-05-18T12:09:33.999Z,47.81
2019-05-18T12:10:33.978Z,48.02
2019-05-18T12:11:33.935Z,47.72
2019-05-18T12:12:33.920Z,46.42
2019-05-18T12:13:33.942Z,46.42
2019-05-18T12:14:33.915Z,46.01
2019-05-18T12:15:33.942Z,46.62
2019-05-18T12:16:33.883Z,45.79
2019-05-18T12:17:33.866Z,46.62
2019-05-18T12:18:33.859Z,45.81
2019-05-18T12:19:33.849Z,45.62
2019-05-18T12:20:33.831Z,47.31
2019-05-18T12:21:33.900Z,46.62
2019-05-18T12:22:33.809Z,46.31
2019-05-18T12:23:33.797Z,46.50
2019-05-18T12:24:33.809Z,45.79
2019-05-18T12:25:33.771Z,45.20
2019-05-18T12:26:33.833Z,45.29
2019-05-18T12:27:33.806Z,44.89
2019-05-18T12:28:33.745Z,45.29
2019-05-18T12:29:33.753Z,45.29
2019-05-18T12:30:33.721Z,46.80
2019-05-18T12:31:33.799Z,46.69
2019-05-18T12:32:33.699Z,46.00
2019-05-18T12:33:33.712Z,45.27
2019-05-18T12:34:33.683Z,43.98
2019-05-18T12:35:33.672Z,44.17
2019-05-18T12:36:33.725Z,45.77
2019-05-18T12:37:33.737Z,45.07
2019-05-18T12:38:33.661Z,43.98
2019-05-18T12:39:33.655Z,44.37
2019-05-18T12:40:33.633Z,44.27
2019-05-18T12:41:33.650Z,45.27
2019-05-18T12:42:33.634Z,43.98
2019-05-18T12:43:33.609Z,44.37
2019-05-18T12:44:33.572Z,45.25
2019-05-18T12:45:33.654Z,43.98
2019-05-18T12:46:33.731Z,44.17
2019-05-18T12:47:33.603Z,44.47
2019-05-18T12:48:33.522Z,45.25
2019-05-18T12:49:33.542Z,44.05
2019-05-18T12:50:33.508Z,44.37
2019-05-18T12:51:33.523Z,45.35
2019-05-18T12:52:33.483Z,44.78
2019-05-18T12:53:33.470Z,44.67